Nearby METAR Reports

 

KRDU - Raleigh-Durham, NC, USA
Distance from station: NE 9mi, 14km
Updated: Wed, 28-Feb-2024 4:51pm EST
Overcast
Overcast
 Wind from SSW
Wind: SSW 20 mph , 31 km/h, Gust: 37 mph , 59 km/h
Temperature: 70°F , 21°C
Dew Point: 55°F , 13°C
Humidity: 60%
Barometer: 1008.8 hPa
Clouds: Overcast
Visibility: 10 miles , 16 km
Cloud details: Mostly cloudy 3700 ft
Mostly cloudy 18000 ft
Overcast 25000 ft
2024/02/28 21:51 KRDU 282151Z 21017G32KT 10SM BKN037 BKN180 OVC250 21/13 A2979 RMK AO2 PK WND 23033/2108 SLP083 T02110128 $
KLHZ - Louisburg, NC, USA
Distance from station: N 9mi, 14km
Updated: Wed, 28-Feb-2024 5:35pm EST
Overcast
Overcast
 Wind from SSW
Wind: SSW 17 mph , 28 km/h, Gust: 25 mph , 41 km/h
Temperature: 70°F , 21°C
Dew Point: 55°F , 13°C
Humidity: 60%
Barometer: 1009.1 hPa
Clouds: Overcast
Visibility: 10 miles , 16 km
Cloud details: Mostly cloudy 4500 ft
Overcast 5000 ft
2024/02/28 22:35 KLHZ 282235Z AUTO 21015G22KT 10SM BKN045 OVC050 21/13 A2980 RMK AO2
 
KJNX - Smithfield, NC, USA
Distance from station: NNW 14mi, 23km
Updated: Wed, 28-Feb-2024 5:30pm EST
Partly cloudy
Partly cloudy
 Wind from SSW
Wind: SSW 14 mph , 22 km/h, Gust: 21 mph , 33 km/h
Temperature: 73°F , 23°C
Dew Point: 55°F , 13°C
Humidity: 53%
Barometer: 1009.5 hPa
Clouds: Partly cloudy
Visibility: 10 miles , 16 km
Cloud details: Partly cloudy 5000 ft
2024/02/28 22:30 KJNX 282230Z AUTO 21012G18KT 10SM SCT050 23/13 A2981 RMK AO2
KHRJ - Erwin, NC, USA
Distance from station: ENE 12mi, 19km
Updated: Wed, 28-Feb-2024 5:30pm EST
Mostly cloudy
Mostly cloudy
 Wind from SSW
Wind: SSW 18 mph , 30 km/h, Gust: 28 mph , 44 km/h
Temperature: 73°F , 23°C
Dew Point: 55°F , 13°C
Humidity: 53%
Barometer: 1010.8 hPa
Clouds: Mostly cloudy
Visibility: 10 miles , 16 km
Cloud details: Mostly cloudy 5000 ft
2024/02/28 22:30 KHRJ 282230Z AUTO 21016G24KT 10SM BKN050 23/13 A2985 RMK AO2 T02270131
 
KTTA - Sanford, NC, USA
Distance from station: NNW 31mi, 50km
Updated: Wed, 28-Feb-2024 5:30pm EST
Partly cloudy
Partly cloudy
 Wind from SSW
Wind: SSW 9 mph , 15 km/h, Gust: 18 mph , 30 km/h
Temperature: 70°F , 21°C
Dew Point: 55°F , 13°C
Humidity: 60%
Barometer: 1009.1 hPa
Clouds: Partly cloudy
Visibility: 10 miles , 16 km
Cloud details: Partly cloudy 4400 ft
2024/02/28 22:30 KTTA 282230Z AUTO 21008G16KT 10SM SCT044 21/13 A2980 RMK AO2 T02100130
KSCR - Siler City, NC, USA
Distance from station: NW 21mi, 34km
Updated: Wed, 28-Feb-2024 5:25pm EST
Mostly cloudy
Mostly cloudy
 Wind from SSW
Wind: SSW 20 mph , 31 km/h, Gust: 25 mph , 41 km/h
Temperature: 68°F , 20°C
Dew Point: 59°F , 15°C
Humidity: 73%
Barometer: 1009.1 hPa
Clouds: Mostly cloudy
Visibility: 10 miles , 16 km
Cloud details: Partly cloudy 6500 ft
Mostly cloudy 8500 ft
2024/02/28 22:25 KSCR 282225Z AUTO 20017G22KT 10SM SCT065 BKN085 20/15 A2980 RMK AO2 T01980150